sensor_id;sensor_type;location;lat;lon;timestamp;temperature;humidity
22940;DHT22;11636;52.086;5.090;2023-07-08T00:02:35;21.40;84.70
22940;DHT22;11636;52.086;5.090;2023-07-08T00:05:29;21.40;84.70
22940;DHT22;11636;52.086;5.090;2023-07-08T00:08:17;21.40;85.10
22940;DHT22;11636;52.086;5.090;2023-07-08T00:11:13;21.30;85.10
22940;DHT22;11636;52.086;5.090;2023-07-08T00:14:00;21.30;85.40
22940;DHT22;11636;52.086;5.090;2023-07-08T00:16:54;21.20;86.10
22940;DHT22;11636;52.086;5.090;2023-07-08T00:19:41;21.20;86.40
22940;DHT22;11636;52.086;5.090;2023-07-08T00:22:35;21.10;86.30
22940;DHT22;11636;52.086;5.090;2023-07-08T00:25:28;21.10;85.70
22940;DHT22;11636;52.086;5.090;2023-07-08T00:28:23;21.10;85.60
22940;DHT22;11636;52.086;5.090;2023-07-08T00:31:10;21.10;85.80
22940;DHT22;11636;52.086;5.090;2023-07-08T00:34:04;21.10;85.70
22940;DHT22;11636;52.086;5.090;2023-07-08T00:36:58;21.10;86.30
22940;DHT22;11636;52.086;5.090;2023-07-08T00:39:45;21.10;86.20
22940;DHT22;11636;52.086;5.090;2023-07-08T00:42:39;21.10;87.00
22940;DHT22;11636;52.086;5.090;2023-07-08T00:45:40;21.00;86.10
22940;DHT22;11636;52.086;5.090;2023-07-08T00:48:44;21.00;86.30
22940;DHT22;11636;52.086;5.090;2023-07-08T00:51:39;21.00;86.40
22940;DHT22;11636;52.086;5.090;2023-07-08T00:54:33;20.90;86.40
22940;DHT22;11636;52.086;5.090;2023-07-08T00:57:22;20.90;87.00
22940;DHT22;11636;52.086;5.090;2023-07-08T01:00:17;20.90;86.80
22940;DHT22;11636;52.086;5.090;2023-07-08T01:03:11;20.90;87.30
22940;DHT22;11636;52.086;5.090;2023-07-08T01:05:58;20.80;87.50
22940;DHT22;11636;52.086;5.090;2023-07-08T01:08:55;20.80;87.80
22940;DHT22;11636;52.086;5.090;2023-07-08T01:11:49;20.80;88.10
22940;DHT22;11636;52.086;5.090;2023-07-08T01:14:38;20.70;89.20
22940;DHT22;11636;52.086;5.090;2023-07-08T01:17:35;20.70;88.90
22940;DHT22;11636;52.086;5.090;2023-07-08T01:20:29;20.60;89.20
22940;DHT22;11636;52.086;5.090;2023-07-08T01:23:17;20.60;89.60
22940;DHT22;11636;52.086;5.090;2023-07-08T01:26:11;20.50;90.00
22940;DHT22;11636;52.086;5.090;2023-07-08T01:29:05;20.40;90.10
22940;DHT22;11636;52.086;5.090;2023-07-08T01:32:01;20.40;90.40
22940;DHT22;11636;52.086;5.090;2023-07-08T01:34:56;20.30;90.50
22940;DHT22;11636;52.086;5.090;2023-07-08T01:37:59;20.30;91.10
22940;DHT22;11636;52.086;5.090;2023-07-08T01:40:53;20.20;91.00
22940;DHT22;11636;52.086;5.090;2023-07-08T01:43:47;20.20;91.20
22940;DHT22;11636;52.086;5.090;2023-07-08T01:46:34;20.20;91.30
22940;DHT22;11636;52.086;5.090;2023-07-08T01:49:28;20.10;91.30
22940;DHT22;11636;52.086;5.090;2023-07-08T01:52:16;20.10;91.60
22940;DHT22;11636;52.086;5.090;2023-07-08T01:55:11;20.00;91.70
22940;DHT22;11636;52.086;5.090;2023-07-08T01:57:58;20.00;91.90
22940;DHT22;11636;52.086;5.090;2023-07-08T02:00:52;19.90;92.00
22940;DHT22;11636;52.086;5.090;2023-07-08T02:03:47;19.90;92.20
22940;DHT22;11636;52.086;5.090;2023-07-08T02:06:34;19.90;92.20
22940;DHT22;11636;52.086;5.090;2023-07-08T02:09:28;19.80;92.30
22940;DHT22;11636;52.086;5.090;2023-07-08T02:12:15;19.80;92.40
22940;DHT22;11636;52.086;5.090;2023-07-08T02:15:10;19.80;93.00
22940;DHT22;11636;52.086;5.090;2023-07-08T02:17:57;19.80;92.70
22940;DHT22;11636;52.086;5.090;2023-07-08T02:20:51;19.80;92.60
22940;DHT22;11636;52.086;5.090;2023-07-08T02:23:49;19.80;92.70
22940;DHT22;11636;52.086;5.090;2023-07-08T02:26:45;19.80;92.90
22940;DHT22;11636;52.086;5.090;2023-07-08T02:29:40;19.80;93.10
22940;DHT22;11636;52.086;5.090;2023-07-08T02:32:28;19.70;93.30
22940;DHT22;11636;52.086;5.090;2023-07-08T02:35:24;19.70;93.40
22940;DHT22;11636;52.086;5.090;2023-07-08T02:38:13;19.70;93.40
22940;DHT22;11636;52.086;5.090;2023-07-08T02:41:06;19.70;93.60
22940;DHT22;11636;52.086;5.090;2023-07-08T02:43:53;19.60;93.70
22940;DHT22;11636;52.086;5.090;2023-07-08T02:46:47;19.60;93.90
22940;DHT22;11636;52.086;5.090;2023-07-08T02:49:41;19.60;94.00
22940;DHT22;11636;52.086;5.090;2023-07-08T02:52:28;19.50;94.10
22940;DHT22;11636;52.086;5.090;2023-07-08T02:55:22;19.50;94.30
22940;DHT22;11636;52.086;5.090;2023-07-08T02:58:09;19.50;94.40
22940;DHT22;11636;52.086;5.090;2023-07-08T03:01:17;19.50;94.40
22940;DHT22;11636;52.086;5.090;2023-07-08T03:04:20;19.50;94.50
22940;DHT22;11636;52.086;5.090;2023-07-08T03:07:15;19.50;94.70
22940;DHT22;11636;52.086;5.090;2023-07-08T03:10:09;19.40;94.70
22940;DHT22;11636;52.086;5.090;2023-07-08T03:12:56;19.40;94.90
22940;DHT22;11636;52.086;5.090;2023-07-08T03:15:50;19.40;95.00
22940;DHT22;11636;52.086;5.090;2023-07-08T03:18:39;19.40;95.10
22940;DHT22;11636;52.086;5.090;2023-07-08T03:21:39;19.40;95.20
22940;DHT22;11636;52.086;5.090;2023-07-08T03:24:26;19.40;95.40
22940;DHT22;11636;52.086;5.090;2023-07-08T03:27:23;19.40;95.50
22940;DHT22;11636;52.086;5.090;2023-07-08T03:30:10;19.30;95.70
22940;DHT22;11636;52.086;5.090;2023-07-08T03:33:04;19.30;95.80
22940;DHT22;11636;52.086;5.090;2023-07-08T03:35:58;19.30;96.00
22940;DHT22;11636;52.086;5.090;2023-07-08T03:38:45;19.20;96.10
22940;DHT22;11636;52.086;5.090;2023-07-08T03:41:39;19.20;96.20
22940;DHT22;11636;52.086;5.090;2023-07-08T03:44:26;19.20;96.30
22940;DHT22;11636;52.086;5.090;2023-07-08T03:47:20;19.20;96.50
22940;DHT22;11636;52.086;5.090;2023-07-08T03:50:18;19.20;96.60
22940;DHT22;11636;52.086;5.090;2023-07-08T03:53:12;19.20;96.70
22940;DHT22;11636;52.086;5.090;2023-07-08T03:56:11;19.20;96.90
22940;DHT22;11636;52.086;5.090;2023-07-08T03:58:59;19.20;97.00
22940;DHT22;11636;52.086;5.090;2023-07-08T04:01:53;19.20;96.90
22940;DHT22;11636;52.086;5.090;2023-07-08T04:04:41;19.20;97.00
22940;DHT22;11636;52.086;5.090;2023-07-08T04:07:34;19.20;97.10
22940;DHT22;11636;52.086;5.090;2023-07-08T04:10:21;19.20;97.20
22940;DHT22;11636;52.086;5.090;2023-07-08T04:13:15;19.20;97.20
22940;DHT22;11636;52.086;5.090;2023-07-08T04:16:04;19.20;97.30
22940;DHT22;11636;52.086;5.090;2023-07-08T04:18:58;19.20;97.40
22940;DHT22;11636;52.086;5.090;2023-07-08T04:21:52;19.20;97.50
22940;DHT22;11636;52.086;5.090;2023-07-08T04:24:40;19.20;97.60
22940;DHT22;11636;52.086;5.090;2023-07-08T04:27:33;19.20;97.50
22940;DHT22;11636;52.086;5.090;2023-07-08T04:30:24;19.20;97.70
22940;DHT22;11636;52.086;5.090;2023-07-08T04:33:18;19.20;97.70
22940;DHT22;11636;52.086;5.090;2023-07-08T04:36:13;19.20;97.80
22940;DHT22;11636;52.086;5.090;2023-07-08T04:39:14;19.20;97.90
22940;DHT22;11636;52.086;5.090;2023-07-08T04:42:14;19.20;98.10
22940;DHT22;11636;52.086;5.090;2023-07-08T04:45:04;19.20;98.10
22940;DHT22;11636;52.086;5.090;2023-07-08T04:47:59;19.20;98.10
22940;DHT22;11636;52.086;5.090;2023-07-08T04:50:51;19.20;98.10
22940;DHT22;11636;52.086;5.090;2023-07-08T04:53:45;19.30;98.20
22940;DHT22;11636;52.086;5.090;2023-07-08T04:56:46;19.30;98.20
22940;DHT22;11636;52.086;5.090;2023-07-08T04:59:40;19.30;98.30
22940;DHT22;11636;52.086;5.090;2023-07-08T05:02:27;19.30;98.40
22940;DHT22;11636;52.086;5.090;2023-07-08T05:05:21;19.30;98.50
22940;DHT22;11636;52.086;5.090;2023-07-08T05:08:15;19.30;98.70
22940;DHT22;11636;52.086;5.090;2023-07-08T05:11:02;19.40;98.80
22940;DHT22;11636;52.086;5.090;2023-07-08T05:13:56;19.40;98.90
22940;DHT22;11636;52.086;5.090;2023-07-08T05:16:44;19.40;98.90
22940;DHT22;11636;52.086;5.090;2023-07-08T05:19:37;19.40;98.90
22940;DHT22;11636;52.086;5.090;2023-07-08T05:22:31;19.40;99.00
22940;DHT22;11636;52.086;5.090;2023-07-08T05:25:19;19.40;99.30
22940;DHT22;11636;52.086;5.090;2023-07-08T05:28:14;19.40;99.30
22940;DHT22;11636;52.086;5.090;2023-07-08T05:31:02;19.40;99.30
22940;DHT22;11636;52.086;5.090;2023-07-08T05:33:55;19.50;99.50
22940;DHT22;11636;52.086;5.090;2023-07-08T05:36:43;19.50;99.30
22940;DHT22;11636;52.086;5.090;2023-07-08T05:39:36;19.50;99.30
22940;DHT22;11636;52.086;5.090;2023-07-08T05:42:24;19.50;99.50
22940;DHT22;11636;52.086;5.090;2023-07-08T05:45:17;19.60;99.60
22940;DHT22;11636;52.086;5.090;2023-07-08T05:48:05;19.60;99.50
22940;DHT22;11636;52.086;5.090;2023-07-08T05:50:58;19.60;99.30
22940;DHT22;11636;52.086;5.090;2023-07-08T05:53:46;19.60;99.50
22940;DHT22;11636;52.086;5.090;2023-07-08T05:56:39;19.70;99.60
22940;DHT22;11636;52.086;5.090;2023-07-08T05:59:35;19.70;99.90
22940;DHT22;11636;52.086;5.090;2023-07-08T06:02:22;19.80;99.90
22940;DHT22;11636;52.086;5.090;2023-07-08T06:05:18;19.80;99.90
22940;DHT22;11636;52.086;5.090;2023-07-08T06:08:06;19.80;99.80
22940;DHT22;11636;52.086;5.090;2023-07-08T06:11:00;19.90;99.90
22940;DHT22;11636;52.086;5.090;2023-07-08T06:13:54;19.90;99.90
22940;DHT22;11636;52.086;5.090;2023-07-08T06:16:48;20.00;99.90
22940;DHT22;11636;52.086;5.090;2023-07-08T06:19:43;20.00;99.90
22940;DHT22;11636;52.086;5.090;2023-07-08T06:22:30;20.00;99.90
22940;DHT22;11636;52.086;5.090;2023-07-08T06:25:33;20.10;99.90
22940;DHT22;11636;52.086;5.090;2023-07-08T06:28:21;20.10;99.90
22940;DHT22;11636;52.086;5.090;2023-07-08T06:31:15;20.20;99.90
22940;DHT22;11636;52.086;5.090;2023-07-08T06:34:03;20.20;99.90
22940;DHT22;11636;52.086;5.090;2023-07-08T06:36:57;20.20;99.90
22940;DHT22;11636;52.086;5.090;2023-07-08T06:39:44;20.30;99.80
22940;DHT22;11636;52.086;5.090;2023-07-08T06:42:38;20.30;99.90
22940;DHT22;11636;52.086;5.090;2023-07-08T06:45:32;20.40;99.90
22940;DHT22;11636;52.086;5.090;2023-07-08T06:48:20;20.40;99.90
22940;DHT22;11636;52.086;5.090;2023-07-08T06:51:13;20.50;99.90
22940;DHT22;11636;52.086;5.090;2023-07-08T06:54:00;20.50;99.90
22940;DHT22;11636;52.086;5.090;2023-07-08T06:56:57;20.50;99.90
22940;DHT22;11636;52.086;5.090;2023-07-08T06:59:44;20.60;99.90
22940;DHT22;11636;52.086;5.090;2023-07-08T07:02:39;20.60;99.90
22940;DHT22;11636;52.086;5.090;2023-07-08T07:05:26;20.60;99.90
22940;DHT22;11636;52.086;5.090;2023-07-08T07:08:19;20.60;99.90
22940;DHT22;11636;52.086;5.090;2023-07-08T07:11:14;20.70;99.90
22940;DHT22;11636;52.086;5.090;2023-07-08T07:14:07;20.70;99.90
22940;DHT22;11636;52.086;5.090;2023-07-08T07:17:04;20.80;99.90
22940;DHT22;11636;52.086;5.090;2023-07-08T07:19:55;20.90;99.90
22940;DHT22;11636;52.086;5.090;2023-07-08T07:22:48;20.90;99.90
22940;DHT22;11636;52.086;5.090;2023-07-08T07:25:35;20.90;99.90
22940;DHT22;11636;52.086;5.090;2023-07-08T07:28:29;21.00;99.90
22940;DHT22;11636;52.086;5.090;2023-07-08T07:31:17;21.00;99.90
22940;DHT22;11636;52.086;5.090;2023-07-08T07:34:10;21.10;99.90
22940;DHT22;11636;52.086;5.090;2023-07-08T07:36:59;21.10;99.90
22940;DHT22;11636;52.086;5.090;2023-07-08T07:39:53;21.10;99.90
22940;DHT22;11636;52.086;5.090;2023-07-08T07:42:42;21.20;99.90
22940;DHT22;11636;52.086;5.090;2023-07-08T07:45:35;21.30;99.90
22940;DHT22;11636;52.086;5.090;2023-07-08T07:48:29;21.50;99.90
22940;DHT22;11636;52.086;5.090;2023-07-08T07:51:17;21.50;99.90
22940;DHT22;11636;52.086;5.090;2023-07-08T07:54:11;21.60;99.90
22940;DHT22;11636;52.086;5.090;2023-07-08T07:56:58;21.70;99.90
22940;DHT22;11636;52.086;5.090;2023-07-08T07:59:52;21.80;99.90
22940;DHT22;11636;52.086;5.090;2023-07-08T08:02:40;21.80;99.80
22940;DHT22;11636;52.086;5.090;2023-07-08T08:05:33;22.00;99.60
22940;DHT22;11636;52.086;5.090;2023-07-08T08:08:21;22.10;99.40
22940;DHT22;11636;52.086;5.090;2023-07-08T08:11:15;22.20;99.30
22940;DHT22;11636;52.086;5.090;2023-07-08T08:14:09;22.40;99.30
22940;DHT22;11636;52.086;5.090;2023-07-08T08:16:57;22.60;99.20
22940;DHT22;11636;52.086;5.090;2023-07-08T08:19:50;22.70;99.10
22940;DHT22;11636;52.086;5.090;2023-07-08T08:22:46;22.90;99.00
22940;DHT22;11636;52.086;5.090;2023-07-08T08:25:39;23.10;98.70
22940;DHT22;11636;52.086;5.090;2023-07-08T08:28:27;23.40;98.30
22940;DHT22;11636;52.086;5.090;2023-07-08T08:31:21;23.50;98.10
22940;DHT22;11636;52.086;5.090;2023-07-08T08:34:08;23.70;97.70
22940;DHT22;11636;52.086;5.090;2023-07-08T08:37:02;23.90;97.50
22940;DHT22;11636;52.086;5.090;2023-07-08T08:39:56;24.10;97.10
22940;DHT22;11636;52.086;5.090;2023-07-08T08:42:59;24.40;96.70
22940;DHT22;11636;52.086;5.090;2023-07-08T08:46:19;24.60;96.30
22940;DHT22;11636;52.086;5.090;2023-07-08T08:49:25;24.80;95.70
22940;DHT22;11636;52.086;5.090;2023-07-08T08:52:20;25.00;95.10
22940;DHT22;11636;52.086;5.090;2023-07-08T08:55:12;25.20;94.80
22940;DHT22;11636;52.086;5.090;2023-07-08T08:59:08;25.50;94.70
22940;DHT22;11636;52.086;5.090;2023-07-08T09:01:41;25.60;94.20
22940;DHT22;11636;52.086;5.090;2023-07-08T09:04:35;25.80;93.40
22940;DHT22;11636;52.086;5.090;2023-07-08T09:07:33;25.90;93.20
22940;DHT22;11636;52.086;5.090;2023-07-08T09:19:26;26.50;92.20
22940;DHT22;11636;52.086;5.090;2023-07-08T09:22:36;26.60;92.30
22940;DHT22;11636;52.086;5.090;2023-07-08T09:28:44;27.00;91.70
22940;DHT22;11636;52.086;5.090;2023-07-08T09:31:32;27.10;91.20
22940;DHT22;11636;52.086;5.090;2023-07-08T09:34:41;27.30;91.10
22940;DHT22;11636;52.086;5.090;2023-07-08T09:37:38;27.40;90.50
22940;DHT22;11636;52.086;5.090;2023-07-08T09:40:30;27.60;89.80
22940;DHT22;11636;52.086;5.090;2023-07-08T09:43:27;27.70;89.10
22940;DHT22;11636;52.086;5.090;2023-07-08T09:46:15;27.90;88.60
22940;DHT22;11636;52.086;5.090;2023-07-08T09:52:12;28.10;88.40
22940;DHT22;11636;52.086;5.090;2023-07-08T09:55:11;28.30;88.20
22940;DHT22;11636;52.086;5.090;2023-07-08T09:58:05;28.40;88.20
22940;DHT22;11636;52.086;5.090;2023-07-08T10:00:59;28.60;87.70
22940;DHT22;11636;52.086;5.090;2023-07-08T10:03:58;28.60;86.90
22940;DHT22;11636;52.086;5.090;2023-07-08T10:06:45;28.70;86.40
22940;DHT22;11636;52.086;5.090;2023-07-08T10:09:42;28.80;85.40
22940;DHT22;11636;52.086;5.090;2023-07-08T10:12:30;29.00;84.70
22940;DHT22;11636;52.086;5.090;2023-07-08T10:15:30;29.10;83.50
22940;DHT22;11636;52.086;5.090;2023-07-08T10:18:29;29.30;83.60
22940;DHT22;11636;52.086;5.090;2023-07-08T10:27:24;29.80;80.40
22940;DHT22;11636;52.086;5.090;2023-07-08T10:30:26;29.90;79.80
22940;DHT22;11636;52.086;5.090;2023-07-08T10:33:38;30.00;80.20
22940;DHT22;11636;52.086;5.090;2023-07-08T10:36:51;30.20;80.30
22940;DHT22;11636;52.086;5.090;2023-07-08T10:46:33;30.60;78.40
22940;DHT22;11636;52.086;5.090;2023-07-08T10:52:47;31.00;77.80
22940;DHT22;11636;52.086;5.090;2023-07-08T10:55:59;31.10;76.90
22940;DHT22;11636;52.086;5.090;2023-07-08T11:05:01;31.40;74.70
22940;DHT22;11636;52.086;5.090;2023-07-08T11:08:08;31.60;75.50
22940;DHT22;11636;52.086;5.090;2023-07-08T11:14:48;31.90;75.10
22940;DHT22;11636;52.086;5.090;2023-07-08T11:17:55;32.10;75.00
22940;DHT22;11636;52.086;5.090;2023-07-08T11:20:45;32.20;75.70
22940;DHT22;11636;52.086;5.090;2023-07-08T11:23:50;32.40;74.50
22940;DHT22;11636;52.086;5.090;2023-07-08T11:26:54;32.40;73.50
22940;DHT22;11636;52.086;5.090;2023-07-08T11:30:01;32.50;73.30
22940;DHT22;11636;52.086;5.090;2023-07-08T11:33:03;32.60;72.20
22940;DHT22;11636;52.086;5.090;2023-07-08T11:35:59;32.60;71.10
22940;DHT22;11636;52.086;5.090;2023-07-08T11:38:48;32.70;69.70
22940;DHT22;11636;52.086;5.090;2023-07-08T11:41:43;32.80;70.20
22940;DHT22;11636;52.086;5.090;2023-07-08T11:44:30;32.90;70.20
22940;DHT22;11636;52.086;5.090;2023-07-08T11:47:31;33.00;69.80
22940;DHT22;11636;52.086;5.090;2023-07-08T11:50:29;33.00;70.00
22940;DHT22;11636;52.086;5.090;2023-07-08T12:02:18;33.50;70.10
22940;DHT22;11636;52.086;5.090;2023-07-08T12:05:13;33.50;69.90
22940;DHT22;11636;52.086;5.090;2023-07-08T12:08:15;33.60;68.70
22940;DHT22;11636;52.086;5.090;2023-07-08T12:11:02;33.70;70.00
22940;DHT22;11636;52.086;5.090;2023-07-08T12:13:58;33.70;68.20
22940;DHT22;11636;52.086;5.090;2023-07-08T12:16:46;33.80;67.70
22940;DHT22;11636;52.086;5.090;2023-07-08T12:19:43;33.90;68.10
22940;DHT22;11636;52.086;5.090;2023-07-08T12:22:39;33.90;67.30
22940;DHT22;11636;52.086;5.090;2023-07-08T12:25:31;33.70;65.10
22940;DHT22;11636;52.086;5.090;2023-07-08T12:28:25;33.50;65.10
22940;DHT22;11636;52.086;5.090;2023-07-08T12:31:18;33.60;65.10
22940;DHT22;11636;52.086;5.090;2023-07-08T12:34:14;33.90;65.60
22940;DHT22;11636;52.086;5.090;2023-07-08T12:37:04;34.20;65.20
22940;DHT22;11636;52.086;5.090;2023-07-08T12:39:58;34.30;63.50
22940;DHT22;11636;52.086;5.090;2023-07-08T12:42:58;34.40;61.40
22940;DHT22;11636;52.086;5.090;2023-07-08T12:45:48;34.50;60.60
22940;DHT22;11636;52.086;5.090;2023-07-08T12:48:42;34.60;60.70
22940;DHT22;11636;52.086;5.090;2023-07-08T12:51:29;34.80;60.00
22940;DHT22;11636;52.086;5.090;2023-07-08T12:54:23;34.80;59.50
22940;DHT22;11636;52.086;5.090;2023-07-08T12:57:10;35.00;59.50
22940;DHT22;11636;52.086;5.090;2023-07-08T13:00:05;35.10;59.20
22940;DHT22;11636;52.086;5.090;2023-07-08T13:03:19;35.20;59.10
22940;DHT22;11636;52.086;5.090;2023-07-08T13:06:12;35.30;59.00
22940;DHT22;11636;52.086;5.090;2023-07-08T13:09:29;35.30;58.80
22940;DHT22;11636;52.086;5.090;2023-07-08T13:12:26;35.30;57.40
22940;DHT22;11636;52.086;5.090;2023-07-08T13:15:24;35.20;57.00
22940;DHT22;11636;52.086;5.090;2023-07-08T13:18:30;35.20;56.90
22940;DHT22;11636;52.086;5.090;2023-07-08T13:21:24;35.20;57.10
22940;DHT22;11636;52.086;5.090;2023-07-08T13:24:12;35.20;57.70
22940;DHT22;11636;52.086;5.090;2023-07-08T13:27:10;35.30;57.70
22940;DHT22;11636;52.086;5.090;2023-07-08T13:30:19;35.50;58.10
22940;DHT22;11636;52.086;5.090;2023-07-08T13:33:16;35.50;57.80
22940;DHT22;11636;52.086;5.090;2023-07-08T13:36:19;35.40;56.90
22940;DHT22;11636;52.086;5.090;2023-07-08T13:39:12;35.40;56.20
22940;DHT22;11636;52.086;5.090;2023-07-08T13:42:09;35.40;55.40
22940;DHT22;11636;52.086;5.090;2023-07-08T13:44:56;35.50;55.00
22940;DHT22;11636;52.086;5.090;2023-07-08T13:48:45;35.60;54.50
22940;DHT22;11636;52.086;5.090;2023-07-08T13:51:20;35.60;53.90
22940;DHT22;11636;52.086;5.090;2023-07-08T13:57:18;35.60;54.30
22940;DHT22;11636;52.086;5.090;2023-07-08T14:00:07;35.70;55.10
22940;DHT22;11636;52.086;5.090;2023-07-08T14:03:01;35.70;55.40
22940;DHT22;11636;52.086;5.090;2023-07-08T14:05:49;35.80;56.00
22940;DHT22;11636;52.086;5.090;2023-07-08T14:08:43;35.80;55.40
22940;DHT22;11636;52.086;5.090;2023-07-08T14:11:37;35.90;55.10
22940;DHT22;11636;52.086;5.090;2023-07-08T14:14:24;35.90;54.90
22940;DHT22;11636;52.086;5.090;2023-07-08T14:17:24;35.80;55.20
22940;DHT22;11636;52.086;5.090;2023-07-08T14:20:15;35.70;55.40
22940;DHT22;11636;52.086;5.090;2023-07-08T14:23:09;35.60;54.30
22940;DHT22;11636;52.086;5.090;2023-07-08T14:25:57;35.20;53.20
22940;DHT22;11636;52.086;5.090;2023-07-08T14:28:50;34.80;53.10
22940;DHT22;11636;52.086;5.090;2023-07-08T14:31:39;34.70;52.80
22940;DHT22;11636;52.086;5.090;2023-07-08T14:34:34;34.30;53.00
22940;DHT22;11636;52.086;5.090;2023-07-08T14:37:21;34.10;53.90
22940;DHT22;11636;52.086;5.090;2023-07-08T14:43:24;33.90;56.00
22940;DHT22;11636;52.086;5.090;2023-07-08T14:46:20;33.70;57.20
22940;DHT22;11636;52.086;5.090;2023-07-08T14:49:22;33.50;55.40
22940;DHT22;11636;52.086;5.090;2023-07-08T14:52:09;33.60;55.00
22940;DHT22;11636;52.086;5.090;2023-07-08T14:55:03;33.60;56.00
22940;DHT22;11636;52.086;5.090;2023-07-08T14:57:51;33.70;57.50
22940;DHT22;11636;52.086;5.090;2023-07-08T15:00:45;33.80;56.10
22940;DHT22;11636;52.086;5.090;2023-07-08T15:03:32;34.00;56.80
22940;DHT22;11636;52.086;5.090;2023-07-08T15:06:26;34.30;57.60
22940;DHT22;11636;52.086;5.090;2023-07-08T15:09:21;34.40;55.60
22940;DHT22;11636;52.086;5.090;2023-07-08T15:12:11;34.60;56.20
22940;DHT22;11636;52.086;5.090;2023-07-08T15:15:15;34.80;57.70
22940;DHT22;11636;52.086;5.090;2023-07-08T15:18:14;35.10;58.50
22940;DHT22;11636;52.086;5.090;2023-07-08T15:21:16;35.20;58.40
22940;DHT22;11636;52.086;5.090;2023-07-08T15:24:11;35.30;58.80
22940;DHT22;11636;52.086;5.090;2023-07-08T15:27:02;35.40;58.60
22940;DHT22;11636;52.086;5.090;2023-07-08T15:29:56;35.40;57.20
22940;DHT22;11636;52.086;5.090;2023-07-08T15:32:51;35.00;56.30
22940;DHT22;11636;52.086;5.090;2023-07-08T15:35:45;34.30;56.20
22940;DHT22;11636;52.086;5.090;2023-07-08T15:38:40;33.80;56.80
22940;DHT22;11636;52.086;5.090;2023-07-08T15:41:34;33.30;58.90
22940;DHT22;11636;52.086;5.090;2023-07-08T15:44:28;33.10;60.40
22940;DHT22;11636;52.086;5.090;2023-07-08T15:47:15;32.90;61.90
22940;DHT22;11636;52.086;5.090;2023-07-08T15:50:12;32.80;63.00
22940;DHT22;11636;52.086;5.090;2023-07-08T15:53:06;32.60;63.70
22940;DHT22;11636;52.086;5.090;2023-07-08T15:56:00;32.50;65.30
22940;DHT22;11636;52.086;5.090;2023-07-08T15:58:48;32.50;65.10
22940;DHT22;11636;52.086;5.090;2023-07-08T16:01:43;32.40;64.50
22940;DHT22;11636;52.086;5.090;2023-07-08T16:04:37;32.40;64.60
22940;DHT22;11636;52.086;5.090;2023-07-08T16:07:24;32.30;65.10
22940;DHT22;11636;52.086;5.090;2023-07-08T16:10:19;32.30;67.00
22940;DHT22;11636;52.086;5.090;2023-07-08T16:13:12;32.40;66.70
22940;DHT22;11636;52.086;5.090;2023-07-08T16:16:00;32.50;67.10
22940;DHT22;11636;52.086;5.090;2023-07-08T16:18:54;32.60;67.90
22940;DHT22;11636;52.086;5.090;2023-07-08T16:21:48;32.70;67.50
22940;DHT22;11636;52.086;5.090;2023-07-08T16:24:42;32.50;67.80
22940;DHT22;11636;52.086;5.090;2023-07-08T16:27:29;32.40;67.90
22940;DHT22;11636;52.086;5.090;2023-07-08T16:30:24;32.30;68.00
22940;DHT22;11636;52.086;5.090;2023-07-08T16:33:12;32.30;67.80
22940;DHT22;11636;52.086;5.090;2023-07-08T16:36:13;32.50;68.10
22940;DHT22;11636;52.086;5.090;2023-07-08T16:39:01;32.50;69.80
22940;DHT22;11636;52.086;5.090;2023-07-08T16:41:54;32.50;69.50
22940;DHT22;11636;52.086;5.090;2023-07-08T16:44:43;32.50;69.20
22940;DHT22;11636;52.086;5.090;2023-07-08T16:47:37;32.80;68.10
22940;DHT22;11636;52.086;5.090;2023-07-08T16:50:31;32.80;67.80
22940;DHT22;11636;52.086;5.090;2023-07-08T16:53:25;32.80;68.80
22940;DHT22;11636;52.086;5.090;2023-07-08T16:56:20;32.60;70.20
22940;DHT22;11636;52.086;5.090;2023-07-08T16:59:08;32.50;70.70
22940;DHT22;11636;52.086;5.090;2023-07-08T17:02:15;32.30;72.00
22940;DHT22;11636;52.086;5.090;2023-07-08T17:05:38;32.10;73.20
22940;DHT22;11636;52.086;5.090;2023-07-08T17:08:25;31.90;74.00
22940;DHT22;11636;52.086;5.090;2023-07-08T17:11:16;31.90;74.20
22940;DHT22;11636;52.086;5.090;2023-07-08T17:14:10;31.90;74.90
22940;DHT22;11636;52.086;5.090;2023-07-08T17:16:59;31.90;75.00
22940;DHT22;11636;52.086;5.090;2023-07-08T17:19:52;31.70;72.40
22940;DHT22;11636;52.086;5.090;2023-07-08T17:22:39;31.70;71.90
22940;DHT22;11636;52.086;5.090;2023-07-08T17:25:33;31.60;71.80
22940;DHT22;11636;52.086;5.090;2023-07-08T17:28:27;31.50;72.10
22940;DHT22;11636;52.086;5.090;2023-07-08T17:31:17;31.40;71.60
22940;DHT22;11636;52.086;5.090;2023-07-08T17:34:32;31.20;72.40
22940;DHT22;11636;52.086;5.090;2023-07-08T17:37:19;31.10;73.40
22940;DHT22;11636;52.086;5.090;2023-07-08T17:40:14;31.00;73.30
22940;DHT22;11636;52.086;5.090;2023-07-08T17:43:02;30.90;72.50
22940;DHT22;11636;52.086;5.090;2023-07-08T17:45:55;30.80;72.20
22940;DHT22;11636;52.086;5.090;2023-07-08T17:48:43;30.70;72.00
22940;DHT22;11636;52.086;5.090;2023-07-08T17:51:40;30.70;72.60
22940;DHT22;11636;52.086;5.090;2023-07-08T17:54:37;30.60;72.50
22940;DHT22;11636;52.086;5.090;2023-07-08T17:57:24;30.50;72.00
22940;DHT22;11636;52.086;5.090;2023-07-08T18:00:25;30.50;72.10
22940;DHT22;11636;52.086;5.090;2023-07-08T18:03:13;30.40;72.60
22940;DHT22;11636;52.086;5.090;2023-07-08T18:06:06;30.40;73.20
22940;DHT22;11636;52.086;5.090;2023-07-08T18:08:54;30.40;73.80
22940;DHT22;11636;52.086;5.090;2023-07-08T18:11:48;30.40;73.80
22940;DHT22;11636;52.086;5.090;2023-07-08T18:14:43;30.30;71.60
22940;DHT22;11636;52.086;5.090;2023-07-08T18:17:31;30.30;71.70
22940;DHT22;11636;52.086;5.090;2023-07-08T18:20:33;30.20;71.30
22940;DHT22;11636;52.086;5.090;2023-07-08T18:23:30;30.20;71.00
22940;DHT22;11636;52.086;5.090;2023-07-08T18:26:35;30.20;71.30
22940;DHT22;11636;52.086;5.090;2023-07-08T18:29:29;30.20;72.30
22940;DHT22;11636;52.086;5.090;2023-07-08T18:32:17;30.20;73.40
22940;DHT22;11636;52.086;5.090;2023-07-08T18:35:14;30.20;73.50
22940;DHT22;11636;52.086;5.090;2023-07-08T18:38:09;30.10;74.80
22940;DHT22;11636;52.086;5.090;2023-07-08T18:41:02;30.00;75.80
22940;DHT22;11636;52.086;5.090;2023-07-08T18:43:51;29.90;75.40
22940;DHT22;11636;52.086;5.090;2023-07-08T18:46:44;29.90;75.00
22940;DHT22;11636;52.086;5.090;2023-07-08T18:49:32;29.80;75.80
22940;DHT22;11636;52.086;5.090;2023-07-08T18:52:25;29.70;75.30
22940;DHT22;11636;52.086;5.090;2023-07-08T18:55:24;29.60;75.60
22940;DHT22;11636;52.086;5.090;2023-07-08T18:58:16;29.50;76.40
22940;DHT22;11636;52.086;5.090;2023-07-08T19:01:18;29.50;77.30
22940;DHT22;11636;52.086;5.090;2023-07-08T19:04:20;29.30;77.70
22940;DHT22;11636;52.086;5.090;2023-07-08T19:07:16;29.20;78.30
22940;DHT22;11636;52.086;5.090;2023-07-08T19:10:03;29.00;78.20
22940;DHT22;11636;52.086;5.090;2023-07-08T19:12:58;28.90;78.90
22940;DHT22;11636;52.086;5.090;2023-07-08T19:15:52;28.70;79.80